sensor_id;sensor_type;location;lat;lon;timestamp;P1;durP1;ratioP1;P2;durP2;ratioP2
45254;SDS011;30989;52.078;21.014;2023-07-13T00:00:00;9.80;;;6.32;;
45254;SDS011;30989;52.078;21.014;2023-07-13T00:02:26;9.60;;;5.28;;
45254;SDS011;30989;52.078;21.014;2023-07-13T00:04:54;11.93;;;4.85;;
45254;SDS011;30989;52.078;21.014;2023-07-13T00:07:20;7.30;;;5.03;;
45254;SDS011;30989;52.078;21.014;2023-07-13T00:09:46;9.02;;;5.32;;
45254;SDS011;30989;52.078;21.014;2023-07-13T00:12:25;11.90;;;5.30;;
45254;SDS011;30989;52.078;21.014;2023-07-13T00:14:59;10.75;;;5.00;;
45254;SDS011;30989;52.078;21.014;2023-07-13T00:17:26;8.32;;;5.25;;
45254;SDS011;30989;52.078;21.014;2023-07-13T00:19:52;9.82;;;4.78;;
45254;SDS011;30989;52.078;21.014;2023-07-13T00:22:19;8.43;;;5.78;;
45254;SDS011;30989;52.078;21.014;2023-07-13T00:24:44;14.85;;;6.88;;
45254;SDS011;30989;52.078;21.014;2023-07-13T00:27:10;10.82;;;4.78;;
45254;SDS011;30989;52.078;21.014;2023-07-13T00:29:37;10.27;;;5.43;;
45254;SDS011;30989;52.078;21.014;2023-07-13T00:32:03;12.70;;;5.55;;
45254;SDS011;30989;52.078;21.014;2023-07-13T00:34:29;10.35;;;5.13;;
45254;SDS011;30989;52.078;21.014;2023-07-13T00:36:55;12.50;;;4.82;;
45254;SDS011;30989;52.078;21.014;2023-07-13T00:39:21;10.68;;;5.72;;
45254;SDS011;30989;52.078;21.014;2023-07-13T00:41:47;9.18;;;5.22;;
45254;SDS011;30989;52.078;21.014;2023-07-13T00:44:13;5.97;;;4.25;;
45254;SDS011;30989;52.078;21.014;2023-07-13T00:46:40;7.85;;;4.40;;
45254;SDS011;30989;52.078;21.014;2023-07-13T00:49:07;7.82;;;5.05;;
45254;SDS011;30989;52.078;21.014;2023-07-13T00:51:39;8.05;;;4.65;;
45254;SDS011;30989;52.078;21.014;2023-07-13T00:54:13;9.23;;;5.03;;
45254;SDS011;30989;52.078;21.014;2023-07-13T00:56:44;8.98;;;5.03;;
45254;SDS011;30989;52.078;21.014;2023-07-13T00:59:11;9.75;;;4.95;;
45254;SDS011;30989;52.078;21.014;2023-07-13T01:01:40;9.80;;;5.15;;
45254;SDS011;30989;52.078;21.014;2023-07-13T01:04:06;10.80;;;5.20;;
45254;SDS011;30989;52.078;21.014;2023-07-13T01:06:36;10.55;;;5.13;;
45254;SDS011;30989;52.078;21.014;2023-07-13T01:09:03;11.73;;;5.22;;
45254;SDS011;30989;52.078;21.014;2023-07-13T01:11:30;8.38;;;4.82;;
45254;SDS011;30989;52.078;21.014;2023-07-13T01:13:55;8.13;;;5.47;;
45254;SDS011;30989;52.078;21.014;2023-07-13T01:16:24;7.15;;;5.40;;
45254;SDS011;30989;52.078;21.014;2023-07-13T01:18:52;9.37;;;5.43;;
45254;SDS011;30989;52.078;21.014;2023-07-13T01:21:18;8.27;;;5.25;;
45254;SDS011;30989;52.078;21.014;2023-07-13T01:23:44;10.20;;;5.97;;
45254;SDS011;30989;52.078;21.014;2023-07-13T01:26:10;7.95;;;4.50;;
45254;SDS011;30989;52.078;21.014;2023-07-13T01:28:37;11.38;;;5.28;;
45254;SDS011;30989;52.078;21.014;2023-07-13T01:31:03;10.77;;;5.97;;
45254;SDS011;30989;52.078;21.014;2023-07-13T01:33:28;9.98;;;5.25;;
45254;SDS011;30989;52.078;21.014;2023-07-13T01:35:55;9.80;;;5.15;;
45254;SDS011;30989;52.078;21.014;2023-07-13T01:38:23;8.07;;;4.80;;
45254;SDS011;30989;52.078;21.014;2023-07-13T01:40:49;8.65;;;5.63;;
45254;SDS011;30989;52.078;21.014;2023-07-13T01:43:15;10.25;;;5.93;;
45254;SDS011;30989;52.078;21.014;2023-07-13T01:45:41;8.88;;;4.88;;
45254;SDS011;30989;52.078;21.014;2023-07-13T01:48:08;11.00;;;6.05;;
45254;SDS011;30989;52.078;21.014;2023-07-13T01:50:34;10.55;;;5.97;;
45254;SDS011;30989;52.078;21.014;2023-07-13T01:53:00;11.10;;;6.57;;
45254;SDS011;30989;52.078;21.014;2023-07-13T01:55:27;8.48;;;5.00;;
45254;SDS011;30989;52.078;21.014;2023-07-13T01:57:53;13.82;;;5.72;;
45254;SDS011;30989;52.078;21.014;2023-07-13T02:00:19;8.57;;;5.30;;
45254;SDS011;30989;52.078;21.014;2023-07-13T02:02:47;10.15;;;5.53;;
45254;SDS011;30989;52.078;21.014;2023-07-13T02:05:13;11.70;;;5.15;;
45254;SDS011;30989;52.078;21.014;2023-07-13T02:07:40;10.88;;;4.68;;
45254;SDS011;30989;52.078;21.014;2023-07-13T02:10:07;12.80;;;6.65;;
45254;SDS011;30989;52.078;21.014;2023-07-13T02:12:34;12.50;;;5.97;;
45254;SDS011;30989;52.078;21.014;2023-07-13T02:15:00;9.10;;;5.32;;
45254;SDS011;30989;52.078;21.014;2023-07-13T02:17:27;10.10;;;5.88;;
45254;SDS011;30989;52.078;21.014;2023-07-13T02:19:52;11.63;;;6.43;;
45254;SDS011;30989;52.078;21.014;2023-07-13T02:22:18;8.40;;;5.07;;
45254;SDS011;30989;52.078;21.014;2023-07-13T02:24:43;9.23;;;5.30;;
45254;SDS011;30989;52.078;21.014;2023-07-13T02:27:09;10.63;;;5.78;;
45254;SDS011;30989;52.078;21.014;2023-07-13T02:29:34;8.38;;;5.35;;
45254;SDS011;30989;52.078;21.014;2023-07-13T02:32:00;9.98;;;5.93;;
45254;SDS011;30989;52.078;21.014;2023-07-13T02:34:25;10.60;;;5.65;;
45254;SDS011;30989;52.078;21.014;2023-07-13T02:36:51;8.80;;;5.10;;
45254;SDS011;30989;52.078;21.014;2023-07-13T02:39:16;11.00;;;5.28;;
45254;SDS011;30989;52.078;21.014;2023-07-13T02:41:42;9.48;;;5.78;;
45254;SDS011;30989;52.078;21.014;2023-07-13T02:44:07;10.30;;;5.78;;
45254;SDS011;30989;52.078;21.014;2023-07-13T02:46:34;10.38;;;5.55;;
45254;SDS011;30989;52.078;21.014;2023-07-13T02:49:01;9.73;;;5.13;;
45254;SDS011;30989;52.078;21.014;2023-07-13T02:51:27;12.88;;;5.97;;
45254;SDS011;30989;52.078;21.014;2023-07-13T02:53:53;10.48;;;6.30;;
45254;SDS011;30989;52.078;21.014;2023-07-13T02:56:22;11.82;;;6.55;;
45254;SDS011;30989;52.078;21.014;2023-07-13T02:58:50;11.43;;;6.18;;
45254;SDS011;30989;52.078;21.014;2023-07-13T03:01:16;11.02;;;6.85;;
45254;SDS011;30989;52.078;21.014;2023-07-13T03:03:46;10.45;;;6.68;;
45254;SDS011;30989;52.078;21.014;2023-07-13T03:06:12;9.90;;;5.68;;
45254;SDS011;30989;52.078;21.014;2023-07-13T03:08:46;10.30;;;6.40;;
45254;SDS011;30989;52.078;21.014;2023-07-13T03:11:15;10.07;;;5.97;;
45254;SDS011;30989;52.078;21.014;2023-07-13T03:13:44;10.82;;;6.78;;
45254;SDS011;30989;52.078;21.014;2023-07-13T03:16:11;10.98;;;6.80;;
45254;SDS011;30989;52.078;21.014;2023-07-13T03:18:37;8.25;;;5.47;;
45254;SDS011;30989;52.078;21.014;2023-07-13T03:21:05;8.38;;;5.78;;
45254;SDS011;30989;52.078;21.014;2023-07-13T03:23:31;26.77;;;14.07;;
45254;SDS011;30989;52.078;21.014;2023-07-13T03:26:07;17.02;;;9.43;;
45254;SDS011;30989;52.078;21.014;2023-07-13T03:28:39;13.45;;;6.78;;
45254;SDS011;30989;52.078;21.014;2023-07-13T03:31:07;11.70;;;5.72;;
45254;SDS011;30989;52.078;21.014;2023-07-13T03:33:42;24.83;;;12.27;;
45254;SDS011;30989;52.078;21.014;2023-07-13T03:36:11;13.70;;;8.13;;
45254;SDS011;30989;52.078;21.014;2023-07-13T03:38:39;12.13;;;7.47;;
45254;SDS011;30989;52.078;21.014;2023-07-13T03:41:05;10.73;;;7.13;;
45254;SDS011;30989;52.078;21.014;2023-07-13T03:43:31;11.75;;;6.88;;
45254;SDS011;30989;52.078;21.014;2023-07-13T03:45:56;11.95;;;6.60;;
45254;SDS011;30989;52.078;21.014;2023-07-13T03:48:21;11.88;;;6.25;;
45254;SDS011;30989;52.078;21.014;2023-07-13T03:50:47;10.38;;;6.28;;
45254;SDS011;30989;52.078;21.014;2023-07-13T03:53:14;12.38;;;5.20;;
45254;SDS011;30989;52.078;21.014;2023-07-13T03:55:40;13.57;;;5.95;;
45254;SDS011;30989;52.078;21.014;2023-07-13T04:00:59;10.88;;;6.13;;
45254;SDS011;30989;52.078;21.014;2023-07-13T04:03:26;11.43;;;7.38;;
45254;SDS011;30989;52.078;21.014;2023-07-13T04:05:53;12.38;;;7.00;;
45254;SDS011;30989;52.078;21.014;2023-07-13T04:08:21;14.85;;;8.75;;
45254;SDS011;30989;52.078;21.014;2023-07-13T04:10:46;18.38;;;8.23;;
45254;SDS011;30989;52.078;21.014;2023-07-13T04:13:12;13.55;;;7.53;;
45254;SDS011;30989;52.078;21.014;2023-07-13T04:15:38;10.98;;;6.75;;
45254;SDS011;30989;52.078;21.014;2023-07-13T04:18:04;16.40;;;6.30;;
45254;SDS011;30989;52.078;21.014;2023-07-13T04:20:29;10.10;;;6.00;;
45254;SDS011;30989;52.078;21.014;2023-07-13T04:22:55;10.15;;;6.43;;
45254;SDS011;30989;52.078;21.014;2023-07-13T04:25:20;13.90;;;5.97;;
45254;SDS011;30989;52.078;21.014;2023-07-13T04:27:46;14.13;;;7.28;;
45254;SDS011;30989;52.078;21.014;2023-07-13T04:30:12;14.70;;;7.25;;
45254;SDS011;30989;52.078;21.014;2023-07-13T04:32:37;12.18;;;7.05;;
45254;SDS011;30989;52.078;21.014;2023-07-13T04:35:03;11.73;;;6.57;;
45254;SDS011;30989;52.078;21.014;2023-07-13T04:37:29;13.32;;;7.38;;
45254;SDS011;30989;52.078;21.014;2023-07-13T04:39:55;12.68;;;8.23;;
45254;SDS011;30989;52.078;21.014;2023-07-13T04:42:20;14.55;;;8.07;;
45254;SDS011;30989;52.078;21.014;2023-07-13T04:44:49;16.52;;;8.38;;
45254;SDS011;30989;52.078;21.014;2023-07-13T04:47:15;19.85;;;11.90;;
45254;SDS011;30989;52.078;21.014;2023-07-13T04:49:41;11.68;;;6.78;;
45254;SDS011;30989;52.078;21.014;2023-07-13T04:52:06;13.38;;;8.02;;
45254;SDS011;30989;52.078;21.014;2023-07-13T04:54:33;15.35;;;9.23;;
45254;SDS011;30989;52.078;21.014;2023-07-13T04:56:58;13.90;;;7.22;;
45254;SDS011;30989;52.078;21.014;2023-07-13T04:59:24;9.95;;;6.63;;
45254;SDS011;30989;52.078;21.014;2023-07-13T05:01:50;28.17;;;14.43;;
45254;SDS011;30989;52.078;21.014;2023-07-13T05:04:16;15.07;;;8.68;;
45254;SDS011;30989;52.078;21.014;2023-07-13T05:06:41;12.70;;;7.38;;
45254;SDS011;30989;52.078;21.014;2023-07-13T05:09:07;11.27;;;6.78;;
45254;SDS011;30989;52.078;21.014;2023-07-13T05:11:32;16.50;;;7.72;;
45254;SDS011;30989;52.078;21.014;2023-07-13T05:13:58;11.98;;;6.38;;
45254;SDS011;30989;52.078;21.014;2023-07-13T05:16:23;11.52;;;7.32;;
45254;SDS011;30989;52.078;21.014;2023-07-13T05:18:49;15.32;;;7.90;;
45254;SDS011;30989;52.078;21.014;2023-07-13T05:21:14;11.60;;;7.63;;
45254;SDS011;30989;52.078;21.014;2023-07-13T05:23:40;15.07;;;7.55;;
45254;SDS011;30989;52.078;21.014;2023-07-13T05:26:06;12.07;;;7.28;;
45254;SDS011;30989;52.078;21.014;2023-07-13T05:28:32;11.27;;;6.20;;
45254;SDS011;30989;52.078;21.014;2023-07-13T05:30:58;11.00;;;7.25;;
45254;SDS011;30989;52.078;21.014;2023-07-13T05:33:23;14.52;;;8.32;;
45254;SDS011;30989;52.078;21.014;2023-07-13T05:35:50;17.23;;;7.85;;
45254;SDS011;30989;52.078;21.014;2023-07-13T05:38:16;13.80;;;8.02;;
45254;SDS011;30989;52.078;21.014;2023-07-13T05:40:44;11.23;;;7.55;;
45254;SDS011;30989;52.078;21.014;2023-07-13T05:43:11;17.17;;;9.05;;
45254;SDS011;30989;52.078;21.014;2023-07-13T05:45:37;15.73;;;8.55;;
45254;SDS011;30989;52.078;21.014;2023-07-13T05:48:02;15.95;;;8.63;;
45254;SDS011;30989;52.078;21.014;2023-07-13T05:50:27;15.05;;;8.35;;
45254;SDS011;30989;52.078;21.014;2023-07-13T05:52:53;17.08;;;7.72;;
45254;SDS011;30989;52.078;21.014;2023-07-13T05:55:19;14.48;;;7.90;;
45254;SDS011;30989;52.078;21.014;2023-07-13T05:57:45;13.00;;;7.93;;
45254;SDS011;30989;52.078;21.014;2023-07-13T06:00:10;14.70;;;7.90;;
45254;SDS011;30989;52.078;21.014;2023-07-13T06:02:39;22.30;;;8.27;;
45254;SDS011;30989;52.078;21.014;2023-07-13T06:05:05;19.42;;;9.02;;
45254;SDS011;30989;52.078;21.014;2023-07-13T06:07:30;15.90;;;8.50;;
45254;SDS011;30989;52.078;21.014;2023-07-13T06:09:57;22.50;;;10.18;;
45254;SDS011;30989;52.078;21.014;2023-07-13T06:12:24;27.55;;;14.32;;
45254;SDS011;30989;52.078;21.014;2023-07-13T06:14:50;17.88;;;10.05;;
45254;SDS011;30989;52.078;21.014;2023-07-13T06:17:16;12.65;;;7.65;;
45254;SDS011;30989;52.078;21.014;2023-07-13T06:19:41;13.82;;;7.40;;
45254;SDS011;30989;52.078;21.014;2023-07-13T06:22:06;12.38;;;7.22;;
45254;SDS011;30989;52.078;21.014;2023-07-13T06:24:32;11.60;;;7.55;;
45254;SDS011;30989;52.078;21.014;2023-07-13T06:26:57;14.52;;;8.57;;
45254;SDS011;30989;52.078;21.014;2023-07-13T06:29:23;12.73;;;7.95;;
45254;SDS011;30989;52.078;21.014;2023-07-13T06:31:48;15.38;;;9.20;;
45254;SDS011;30989;52.078;21.014;2023-07-13T06:34:13;16.63;;;7.70;;
45254;SDS011;30989;52.078;21.014;2023-07-13T06:36:39;12.43;;;7.15;;
45254;SDS011;30989;52.078;21.014;2023-07-13T06:39:05;13.23;;;6.97;;
45254;SDS011;30989;52.078;21.014;2023-07-13T06:41:31;13.55;;;8.05;;
45254;SDS011;30989;52.078;21.014;2023-07-13T06:43:58;12.35;;;7.28;;
45254;SDS011;30989;52.078;21.014;2023-07-13T06:46:24;10.15;;;6.38;;
45254;SDS011;30989;52.078;21.014;2023-07-13T06:48:50;12.63;;;6.70;;
45254;SDS011;30989;52.078;21.014;2023-07-13T06:51:15;10.45;;;6.55;;
45254;SDS011;30989;52.078;21.014;2023-07-13T06:53:41;12.38;;;6.15;;
45254;SDS011;30989;52.078;21.014;2023-07-13T06:56:08;10.73;;;6.72;;
45254;SDS011;30989;52.078;21.014;2023-07-13T06:58:35;10.27;;;6.53;;
45254;SDS011;30989;52.078;21.014;2023-07-13T07:01:01;14.07;;;7.57;;
45254;SDS011;30989;52.078;21.014;2023-07-13T07:03:27;12.23;;;6.63;;
45254;SDS011;30989;52.078;21.014;2023-07-13T07:05:53;9.55;;;5.57;;
45254;SDS011;30989;52.078;21.014;2023-07-13T07:08:18;9.48;;;5.95;;
45254;SDS011;30989;52.078;21.014;2023-07-13T07:10:44;8.88;;;5.53;;
45254;SDS011;30989;52.078;21.014;2023-07-13T07:13:10;8.73;;;5.68;;
45254;SDS011;30989;52.078;21.014;2023-07-13T07:15:35;10.75;;;5.55;;
45254;SDS011;30989;52.078;21.014;2023-07-13T07:18:01;7.63;;;4.80;;
45254;SDS011;30989;52.078;21.014;2023-07-13T07:20:27;8.02;;;5.57;;
45254;SDS011;30989;52.078;21.014;2023-07-13T07:22:52;8.80;;;6.05;;
45254;SDS011;30989;52.078;21.014;2023-07-13T07:25:18;9.75;;;5.10;;
45254;SDS011;30989;52.078;21.014;2023-07-13T07:27:44;7.65;;;5.35;;
45254;SDS011;30989;52.078;21.014;2023-07-13T07:30:10;9.07;;;4.78;;
45254;SDS011;30989;52.078;21.014;2023-07-13T07:32:36;8.63;;;4.63;;
45254;SDS011;30989;52.078;21.014;2023-07-13T07:35:01;6.32;;;3.75;;
45254;SDS011;30989;52.078;21.014;2023-07-13T07:37:27;8.10;;;3.80;;
45254;SDS011;30989;52.078;21.014;2023-07-13T07:39:52;6.80;;;3.55;;
45254;SDS011;30989;52.078;21.014;2023-07-13T07:42:18;4.72;;;3.05;;
45254;SDS011;30989;52.078;21.014;2023-07-13T07:44:43;14.20;;;5.30;;
45254;SDS011;30989;52.078;21.014;2023-07-13T07:47:09;6.05;;;3.20;;
45254;SDS011;30989;52.078;21.014;2023-07-13T07:49:34;7.63;;;3.22;;
45254;SDS011;30989;52.078;21.014;2023-07-13T07:52:01;8.52;;;2.92;;
45254;SDS011;30989;52.078;21.014;2023-07-13T07:54:26;8.63;;;4.03;;
45254;SDS011;30989;52.078;21.014;2023-07-13T07:56:52;8.48;;;4.13;;
45254;SDS011;30989;52.078;21.014;2023-07-13T07:59:18;6.35;;;3.90;;
45254;SDS011;30989;52.078;21.014;2023-07-13T08:01:44;7.05;;;3.70;;
45254;SDS011;30989;52.078;21.014;2023-07-13T08:04:11;12.38;;;5.05;;
45254;SDS011;30989;52.078;21.014;2023-07-13T08:06:37;8.32;;;4.38;;
45254;SDS011;30989;52.078;21.014;2023-07-13T08:09:03;8.07;;;4.68;;
45254;SDS011;30989;52.078;21.014;2023-07-13T08:11:29;6.88;;;4.22;;
45254;SDS011;30989;52.078;21.014;2023-07-13T08:13:54;8.52;;;4.63;;
45254;SDS011;30989;52.078;21.014;2023-07-13T08:16:20;8.13;;;5.10;;
45254;SDS011;30989;52.078;21.014;2023-07-13T08:18:46;7.57;;;4.20;;
45254;SDS011;30989;52.078;21.014;2023-07-13T08:21:12;8.48;;;5.32;;
45254;SDS011;30989;52.078;21.014;2023-07-13T08:23:37;10.45;;;4.45;;
45254;SDS011;30989;52.078;21.014;2023-07-13T08:26:03;8.10;;;5.28;;
45254;SDS011;30989;52.078;21.014;2023-07-13T08:28:30;7.82;;;4.90;;
45254;SDS011;30989;52.078;21.014;2023-07-13T08:31:06;10.50;;;4.65;;
45254;SDS011;30989;52.078;21.014;2023-07-13T08:33:33;6.97;;;4.25;;
45254;SDS011;30989;52.078;21.014;2023-07-13T08:36:00;9.45;;;4.63;;
45254;SDS011;30989;52.078;21.014;2023-07-13T08:38:25;8.05;;;5.25;;
45254;SDS011;30989;52.078;21.014;2023-07-13T08:40:52;7.55;;;5.07;;
45254;SDS011;30989;52.078;21.014;2023-07-13T08:43:28;7.20;;;4.32;;
45254;SDS011;30989;52.078;21.014;2023-07-13T08:48:46;9.00;;;4.95;;
45254;SDS011;30989;52.078;21.014;2023-07-13T08:54:20;8.70;;;4.65;;
45254;SDS011;30989;52.078;21.014;2023-07-13T08:56:48;8.07;;;5.20;;
45254;SDS011;30989;52.078;21.014;2023-07-13T08:59:19;8.70;;;5.13;;
45254;SDS011;30989;52.078;21.014;2023-07-13T09:04:40;8.68;;;4.75;;
45254;SDS011;30989;52.078;21.014;2023-07-13T09:12:20;7.32;;;5.03;;
45254;SDS011;30989;52.078;21.014;2023-07-13T09:14:49;7.70;;;4.80;;
45254;SDS011;30989;52.078;21.014;2023-07-13T09:17:19;6.57;;;4.25;;
45254;SDS011;30989;52.078;21.014;2023-07-13T09:19:52;8.10;;;4.63;;
45254;SDS011;30989;52.078;21.014;2023-07-13T09:22:22;6.88;;;4.50;;
45254;SDS011;30989;52.078;21.014;2023-07-13T09:24:51;7.18;;;4.22;;
45254;SDS011;30989;52.078;21.014;2023-07-13T09:27:27;6.20;;;4.40;;
45254;SDS011;30989;52.078;21.014;2023-07-13T09:30:07;5.90;;;3.55;;
45254;SDS011;30989;52.078;21.014;2023-07-13T09:32:50;5.95;;;3.92;;
45254;SDS011;30989;52.078;21.014;2023-07-13T09:35:22;6.68;;;4.18;;
45254;SDS011;30989;52.078;21.014;2023-07-13T09:37:56;8.38;;;3.97;;
45254;SDS011;30989;52.078;21.014;2023-07-13T09:40:28;7.35;;;4.85;;
45254;SDS011;30989;52.078;21.014;2023-07-13T09:43:01;8.32;;;4.60;;
45254;SDS011;30989;52.078;21.014;2023-07-13T09:45:30;6.20;;;4.22;;
45254;SDS011;30989;52.078;21.014;2023-07-13T09:48:11;7.57;;;3.90;;
45254;SDS011;30989;52.078;21.014;2023-07-13T09:50:38;6.53;;;4.10;;
45254;SDS011;30989;52.078;21.014;2023-07-13T09:53:09;6.30;;;4.25;;
45254;SDS011;30989;52.078;21.014;2023-07-13T09:55:44;6.68;;;4.10;;
45254;SDS011;30989;52.078;21.014;2023-07-13T10:00:39;10.43;;;5.25;;
45254;SDS011;30989;52.078;21.014;2023-07-13T10:05:41;8.27;;;4.18;;
45254;SDS011;30989;52.078;21.014;2023-07-13T10:08:30;20.88;;;5.63;;
45254;SDS011;30989;52.078;21.014;2023-07-13T10:11:02;8.20;;;4.28;;
45254;SDS011;30989;52.078;21.014;2023-07-13T10:13:41;8.40;;;5.30;;
45254;SDS011;30989;52.078;21.014;2023-07-13T10:16:09;9.18;;;5.75;;
45254;SDS011;30989;52.078;21.014;2023-07-13T10:18:38;10.23;;;6.13;;
45254;SDS011;30989;52.078;21.014;2023-07-13T10:21:18;7.93;;;4.80;;
45254;SDS011;30989;52.078;21.014;2023-07-13T10:23:51;7.80;;;5.18;;
45254;SDS011;30989;52.078;21.014;2023-07-13T10:29:06;9.32;;;4.13;;
45254;SDS011;30989;52.078;21.014;2023-07-13T10:31:37;7.57;;;4.22;;
45254;SDS011;30989;52.078;21.014;2023-07-13T10:34:03;8.98;;;4.90;;
45254;SDS011;30989;52.078;21.014;2023-07-13T10:39:14;6.80;;;3.45;;
45254;SDS011;30989;52.078;21.014;2023-07-13T10:41:42;20.67;;;3.92;;
45254;SDS011;30989;52.078;21.014;2023-07-13T10:44:22;6.10;;;3.10;;
45254;SDS011;30989;52.078;21.014;2023-07-13T10:46:52;7.10;;;3.17;;
45254;SDS011;30989;52.078;21.014;2023-07-13T10:49:20;4.85;;;3.05;;
45254;SDS011;30989;52.078;21.014;2023-07-13T10:51:47;7.13;;;3.35;;
45254;SDS011;30989;52.078;21.014;2023-07-13T10:54:16;7.22;;;2.72;;
45254;SDS011;30989;52.078;21.014;2023-07-13T10:56:44;8.43;;;2.72;;
45254;SDS011;30989;52.078;21.014;2023-07-13T10:59:13;7.80;;;2.70;;
45254;SDS011;30989;52.078;21.014;2023-07-13T11:01:53;4.18;;;2.13;;
45254;SDS011;30989;52.078;21.014;2023-07-13T11:04:24;5.05;;;2.42;;
45254;SDS011;30989;52.078;21.014;2023-07-13T11:06:59;6.00;;;2.40;;
45254;SDS011;30989;52.078;21.014;2023-07-13T11:09:36;8.50;;;3.75;;
45254;SDS011;30989;52.078;21.014;2023-07-13T11:12:48;9.80;;;3.78;;
45254;SDS011;30989;52.078;21.014;2023-07-13T11:15:13;13.77;;;3.75;;
45254;SDS011;30989;52.078;21.014;2023-07-13T11:17:47;9.82;;;3.60;;
45254;SDS011;30989;52.078;21.014;2023-07-13T11:22:47;10.52;;;5.03;;
45254;SDS011;30989;52.078;21.014;2023-07-13T11:25:24;10.90;;;4.43;;
45254;SDS011;30989;52.078;21.014;2023-07-13T11:33:44;8.43;;;4.03;;
45254;SDS011;30989;52.078;21.014;2023-07-13T11:36:18;9.15;;;4.13;;
45254;SDS011;30989;52.078;21.014;2023-07-13T11:41:42;10.82;;;4.75;;
45254;SDS011;30989;52.078;21.014;2023-07-13T11:44:14;13.40;;;5.72;;
45254;SDS011;30989;52.078;21.014;2023-07-13T11:46:46;7.85;;;3.75;;
45254;SDS011;30989;52.078;21.014;2023-07-13T11:49:26;6.88;;;3.75;;
45254;SDS011;30989;52.078;21.014;2023-07-13T11:51:55;7.53;;;3.10;;
45254;SDS011;30989;52.078;21.014;2023-07-13T11:54:32;5.32;;;3.20;;
45254;SDS011;30989;52.078;21.014;2023-07-13T11:57:19;5.60;;;2.67;;
45254;SDS011;30989;52.078;21.014;2023-07-13T11:59:53;6.13;;;3.58;;
45254;SDS011;30989;52.078;21.014;2023-07-13T12:02:33;6.00;;;3.10;;
45254;SDS011;30989;52.078;21.014;2023-07-13T12:05:01;9.82;;;3.95;;
45254;SDS011;30989;52.078;21.014;2023-07-13T12:07:31;5.93;;;3.67;;
45254;SDS011;30989;52.078;21.014;2023-07-13T12:12:54;7.50;;;3.92;;
45254;SDS011;30989;52.078;21.014;2023-07-13T12:15:22;8.20;;;4.70;;
45254;SDS011;30989;52.078;21.014;2023-07-13T12:17:51;9.38;;;4.53;;
45254;SDS011;30989;52.078;21.014;2023-07-13T12:20:19;9.07;;;4.90;;
45254;SDS011;30989;52.078;21.014;2023-07-13T12:22:49;10.55;;;4.80;;
45254;SDS011;30989;52.078;21.014;2023-07-13T12:25:15;9.45;;;4.32;;
45254;SDS011;30989;52.078;21.014;2023-07-13T12:27:42;15.90;;;5.13;;
45254;SDS011;30989;52.078;21.014;2023-07-13T12:33:00;9.35;;;5.03;;
45254;SDS011;30989;52.078;21.014;2023-07-13T12:35:38;12.52;;;5.45;;
45254;SDS011;30989;52.078;21.014;2023-07-13T12:38:08;11.43;;;5.30;;
45254;SDS011;30989;52.078;21.014;2023-07-13T12:40:35;15.27;;;5.05;;
45254;SDS011;30989;52.078;21.014;2023-07-13T12:43:02;11.50;;;5.80;;
45254;SDS011;30989;52.078;21.014;2023-07-13T12:45:32;9.13;;;4.85;;
45254;SDS011;30989;52.078;21.014;2023-07-13T12:48:05;14.23;;;5.00;;
45254;SDS011;30989;52.078;21.014;2023-07-13T12:50:45;11.88;;;5.07;;
45254;SDS011;30989;52.078;21.014;2023-07-13T12:53:14;13.70;;;5.80;;
45254;SDS011;30989;52.078;21.014;2023-07-13T12:55:44;9.40;;;5.60;;
45254;SDS011;30989;52.078;21.014;2023-07-13T12:58:17;10.25;;;5.53;;
45254;SDS011;30989;52.078;21.014;2023-07-13T13:00:49;9.07;;;4.30;;
45254;SDS011;30989;52.078;21.014;2023-07-13T13:06:00;10.07;;;5.03;;
45254;SDS011;30989;52.078;21.014;2023-07-13T13:08:41;12.30;;;4.78;;
45254;SDS011;30989;52.078;21.014;2023-07-13T13:11:09;10.40;;;5.85;;
45254;SDS011;30989;52.078;21.014;2023-07-13T13:13:34;12.80;;;5.90;;
45254;SDS011;30989;52.078;21.014;2023-07-13T13:18:50;12.23;;;5.90;;
45254;SDS011;30989;52.078;21.014;2023-07-13T13:21:17;14.63;;;5.53;;
45254;SDS011;30989;52.078;21.014;2023-07-13T13:23:44;15.13;;;6.20;;
45254;SDS011;30989;52.078;21.014;2023-07-13T13:26:11;10.65;;;5.32;;
45254;SDS011;30989;52.078;21.014;2023-07-13T13:28:38;15.38;;;6.90;;
45254;SDS011;30989;52.078;21.014;2023-07-13T13:31:03;15.10;;;5.93;;
45254;SDS011;30989;52.078;21.014;2023-07-13T13:33:29;14.13;;;6.93;;
45254;SDS011;30989;52.078;21.014;2023-07-13T13:35:55;11.20;;;6.95;;
45254;SDS011;30989;52.078;21.014;2023-07-13T13:38:24;16.70;;;7.47;;
45254;SDS011;30989;52.078;21.014;2023-07-13T13:40:51;10.73;;;5.90;;
45254;SDS011;30989;52.078;21.014;2023-07-13T13:43:18;11.30;;;5.35;;
45254;SDS011;30989;52.078;21.014;2023-07-13T13:45:51;13.05;;;6.82;;
45254;SDS011;30989;52.078;21.014;2023-07-13T13:48:18;11.27;;;5.25;;
45254;SDS011;30989;52.078;21.014;2023-07-13T13:50:45;11.98;;;4.97;;
45254;SDS011;30989;52.078;21.014;2023-07-13T13:53:12;14.20;;;4.93;;
45254;SDS011;30989;52.078;21.014;2023-07-13T13:55:39;9.75;;;6.00;;
45254;SDS011;30989;52.078;21.014;2023-07-13T13:58:09;11.85;;;5.20;;
45254;SDS011;30989;52.078;21.014;2023-07-13T14:00:36;10.45;;;5.40;;
45254;SDS011;30989;52.078;21.014;2023-07-13T14:03:03;6.47;;;3.97;;
45254;SDS011;30989;52.078;21.014;2023-07-13T14:05:28;11.02;;;5.00;;
45254;SDS011;30989;52.078;21.014;2023-07-13T14:07:55;9.93;;;4.78;;
45254;SDS011;30989;52.078;21.014;2023-07-13T14:10:22;9.63;;;4.40;;
45254;SDS011;30989;52.078;21.014;2023-07-13T14:12:48;7.15;;;4.00;;
45254;SDS011;30989;52.078;21.014;2023-07-13T14:15:25;7.85;;;3.90;;
45254;SDS011;30989;52.078;21.014;2023-07-13T14:17:53;10.50;;;4.15;;
45254;SDS011;30989;52.078;21.014;2023-07-13T14:20:20;7.47;;;4.32;;
45254;SDS011;30989;52.078;21.014;2023-07-13T14:22:48;7.88;;;4.10;;
45254;SDS011;30989;52.078;21.014;2023-07-13T14:25:15;8.88;;;4.00;;
45254;SDS011;30989;52.078;21.014;2023-07-13T14:27:42;6.35;;;3.70;;
45254;SDS011;30989;52.078;21.014;2023-07-13T14:30:18;6.95;;;3.95;;
45254;SDS011;30989;52.078;21.014;2023-07-13T14:32:45;5.63;;;3.33;;
45254;SDS011;30989;52.078;21.014;2023-07-13T14:35:16;8.80;;;4.45;;
45254;SDS011;30989;52.078;21.014;2023-07-13T14:37:43;12.73;;;4.17;;
45254;SDS011;30989;52.078;21.014;2023-07-13T14:40:17;8.40;;;3.72;;
45254;SDS011;30989;52.078;21.014;2023-07-13T14:42:46;9.32;;;4.65;;
45254;SDS011;30989;52.078;21.014;2023-07-13T14:45:16;5.40;;;3.03;;
45254;SDS011;30989;52.078;21.014;2023-07-13T14:47:44;7.65;;;4.57;;
45254;SDS011;30989;52.078;21.014;2023-07-13T14:50:17;6.57;;;4.07;;
45254;SDS011;30989;52.078;21.014;2023-07-13T14:52:45;8.93;;;4.13;;
45254;SDS011;30989;52.078;21.014;2023-07-13T14:55:13;6.35;;;3.65;;
45254;SDS011;30989;52.078;21.014;2023-07-13T14:57:40;6.45;;;3.30;;
45254;SDS011;30989;52.078;21.014;2023-07-13T15:00:12;7.50;;;3.85;;
45254;SDS011;30989;52.078;21.014;2023-07-13T15:02:42;8.95;;;3.55;;
45254;SDS011;30989;52.078;21.014;2023-07-13T15:05:17;6.45;;;4.10;;
45254;SDS011;30989;52.078;21.014;2023-07-13T15:07:44;9.70;;;4.18;;
45254;SDS011;30989;52.078;21.014;2023-07-13T15:10:13;6.53;;;3.63;;
45254;SDS011;30989;52.078;21.014;2023-07-13T15:12:39;16.95;;;4.30;;
45254;SDS011;30989;52.078;21.014;2023-07-13T15:15:04;5.78;;;3.28;;
45254;SDS011;30989;52.078;21.014;2023-07-13T15:20:11;6.32;;;3.78;;
45254;SDS011;30989;52.078;21.014;2023-07-13T15:22:51;5.32;;;3.42;;
45254;SDS011;30989;52.078;21.014;2023-07-13T15:25:19;16.58;;;6.20;;